sensor_id;sensor_type;location;lat;lon;timestamp;P1;durP1;ratioP1;P2;durP2;ratioP2
4074;SDS011;2052;53.522;9.806;2023-10-19T00:02:08;16.07;;;9.67;;
4074;SDS011;2052;53.522;9.806;2023-10-19T00:04:36;15.40;;;9.43;;
4074;SDS011;2052;53.522;9.806;2023-10-19T00:07:03;15.37;;;10.50;;
4074;SDS011;2052;53.522;9.806;2023-10-19T00:09:33;17.77;;;10.10;;
4074;SDS011;2052;53.522;9.806;2023-10-19T00:12:03;18.30;;;9.60;;
4074;SDS011;2052;53.522;9.806;2023-10-19T00:14:31;14.20;;;10.57;;
4074;SDS011;2052;53.522;9.806;2023-10-19T00:16:57;19.03;;;10.40;;
4074;SDS011;2052;53.522;9.806;2023-10-19T00:19:31;19.93;;;10.83;;
4074;SDS011;2052;53.522;9.806;2023-10-19T00:22:06;24.53;;;12.03;;
4074;SDS011;2052;53.522;9.806;2023-10-19T00:24:34;16.00;;;11.17;;
4074;SDS011;2052;53.522;9.806;2023-10-19T00:27:02;20.10;;;10.37;;
4074;SDS011;2052;53.522;9.806;2023-10-19T00:29:40;16.90;;;10.40;;
4074;SDS011;2052;53.522;9.806;2023-10-19T00:32:13;23.37;;;11.77;;
4074;SDS011;2052;53.522;9.806;2023-10-19T00:34:40;17.87;;;10.80;;
4074;SDS011;2052;53.522;9.806;2023-10-19T00:37:18;22.43;;;11.10;;
4074;SDS011;2052;53.522;9.806;2023-10-19T00:39:51;22.70;;;11.30;;
4074;SDS011;2052;53.522;9.806;2023-10-19T00:42:20;18.37;;;10.90;;
4074;SDS011;2052;53.522;9.806;2023-10-19T00:44:51;19.43;;;10.87;;
4074;SDS011;2052;53.522;9.806;2023-10-19T00:47:24;15.90;;;11.37;;
4074;SDS011;2052;53.522;9.806;2023-10-19T00:49:55;17.00;;;11.30;;
4074;SDS011;2052;53.522;9.806;2023-10-19T00:52:29;19.93;;;11.77;;
4074;SDS011;2052;53.522;9.806;2023-10-19T00:54:57;16.70;;;10.30;;
4074;SDS011;2052;53.522;9.806;2023-10-19T00:57:24;19.00;;;10.80;;
4074;SDS011;2052;53.522;9.806;2023-10-19T00:59:59;18.80;;;10.87;;
4074;SDS011;2052;53.522;9.806;2023-10-19T01:02:36;22.97;;;12.03;;
4074;SDS011;2052;53.522;9.806;2023-10-19T01:05:08;25.60;;;12.33;;
4074;SDS011;2052;53.522;9.806;2023-10-19T01:07:42;20.67;;;12.70;;
4074;SDS011;2052;53.522;9.806;2023-10-19T01:10:13;21.37;;;11.37;;
4074;SDS011;2052;53.522;9.806;2023-10-19T01:12:45;22.90;;;11.30;;
4074;SDS011;2052;53.522;9.806;2023-10-19T01:15:12;22.67;;;11.87;;
4074;SDS011;2052;53.522;9.806;2023-10-19T01:17:43;25.53;;;11.60;;
4074;SDS011;2052;53.522;9.806;2023-10-19T01:20:12;18.63;;;11.20;;
4074;SDS011;2052;53.522;9.806;2023-10-19T01:22:50;22.27;;;11.57;;
4074;SDS011;2052;53.522;9.806;2023-10-19T01:25:31;16.00;;;9.87;;
4074;SDS011;2052;53.522;9.806;2023-10-19T01:28:02;20.20;;;12.00;;
4074;SDS011;2052;53.522;9.806;2023-10-19T01:30:33;18.80;;;11.07;;
4074;SDS011;2052;53.522;9.806;2023-10-19T01:33:01;24.70;;;11.57;;
4074;SDS011;2052;53.522;9.806;2023-10-19T01:35:29;17.70;;;11.67;;
4074;SDS011;2052;53.522;9.806;2023-10-19T01:38:19;21.30;;;11.20;;
4074;SDS011;2052;53.522;9.806;2023-10-19T01:40:45;18.57;;;10.77;;
4074;SDS011;2052;53.522;9.806;2023-10-19T01:43:13;25.10;;;12.63;;
4074;SDS011;2052;53.522;9.806;2023-10-19T01:45:46;22.60;;;11.93;;
4074;SDS011;2052;53.522;9.806;2023-10-19T01:48:13;26.10;;;11.93;;
4074;SDS011;2052;53.522;9.806;2023-10-19T01:50:43;20.27;;;11.53;;
4074;SDS011;2052;53.522;9.806;2023-10-19T01:53:10;20.00;;;11.50;;
4074;SDS011;2052;53.522;9.806;2023-10-19T01:55:42;21.47;;;11.30;;
4074;SDS011;2052;53.522;9.806;2023-10-19T01:58:09;24.97;;;13.23;;
4074;SDS011;2052;53.522;9.806;2023-10-19T02:00:35;23.10;;;12.23;;
4074;SDS011;2052;53.522;9.806;2023-10-19T02:03:06;26.13;;;12.67;;
4074;SDS011;2052;53.522;9.806;2023-10-19T02:05:32;19.40;;;11.80;;
4074;SDS011;2052;53.522;9.806;2023-10-19T02:08:07;19.13;;;11.97;;
4074;SDS011;2052;53.522;9.806;2023-10-19T02:10:36;17.80;;;10.30;;
4074;SDS011;2052;53.522;9.806;2023-10-19T02:13:09;22.13;;;12.23;;
4074;SDS011;2052;53.522;9.806;2023-10-19T02:15:36;21.40;;;12.00;;
4074;SDS011;2052;53.522;9.806;2023-10-19T02:18:02;21.77;;;11.87;;
4074;SDS011;2052;53.522;9.806;2023-10-19T02:20:28;20.27;;;11.53;;
4074;SDS011;2052;53.522;9.806;2023-10-19T02:22:57;19.77;;;11.70;;
4074;SDS011;2052;53.522;9.806;2023-10-19T02:25:28;24.93;;;12.17;;
4074;SDS011;2052;53.522;9.806;2023-10-19T02:27:55;24.73;;;12.80;;
4074;SDS011;2052;53.522;9.806;2023-10-19T02:30:24;27.00;;;12.00;;
4074;SDS011;2052;53.522;9.806;2023-10-19T02:32:50;18.90;;;11.70;;
4074;SDS011;2052;53.522;9.806;2023-10-19T02:35:19;16.57;;;9.80;;
4074;SDS011;2052;53.522;9.806;2023-10-19T02:37:45;18.90;;;11.80;;
4074;SDS011;2052;53.522;9.806;2023-10-19T02:40:12;20.43;;;11.50;;
4074;SDS011;2052;53.522;9.806;2023-10-19T02:42:45;17.97;;;11.53;;
4074;SDS011;2052;53.522;9.806;2023-10-19T02:45:12;18.87;;;11.57;;
4074;SDS011;2052;53.522;9.806;2023-10-19T02:47:42;24.93;;;12.00;;
4074;SDS011;2052;53.522;9.806;2023-10-19T02:50:08;19.90;;;11.97;;
4074;SDS011;2052;53.522;9.806;2023-10-19T02:52:38;19.53;;;12.80;;
4074;SDS011;2052;53.522;9.806;2023-10-19T02:55:06;23.30;;;11.90;;
4074;SDS011;2052;53.522;9.806;2023-10-19T02:57:34;22.67;;;11.70;;
4074;SDS011;2052;53.522;9.806;2023-10-19T03:00:00;20.20;;;11.63;;
4074;SDS011;2052;53.522;9.806;2023-10-19T03:02:33;23.63;;;11.70;;
4074;SDS011;2052;53.522;9.806;2023-10-19T03:05:00;19.73;;;13.07;;
4074;SDS011;2052;53.522;9.806;2023-10-19T03:07:34;27.20;;;12.97;;
4074;SDS011;2052;53.522;9.806;2023-10-19T03:10:00;20.57;;;12.00;;
4074;SDS011;2052;53.522;9.806;2023-10-19T03:12:27;21.17;;;13.13;;
4074;SDS011;2052;53.522;9.806;2023-10-19T03:14:55;29.53;;;13.90;;
4074;SDS011;2052;53.522;9.806;2023-10-19T03:17:21;23.40;;;12.57;;
4074;SDS011;2052;53.522;9.806;2023-10-19T03:19:49;22.73;;;13.73;;
4074;SDS011;2052;53.522;9.806;2023-10-19T03:22:16;25.13;;;13.80;;
4074;SDS011;2052;53.522;9.806;2023-10-19T03:24:44;24.93;;;14.17;;
4074;SDS011;2052;53.522;9.806;2023-10-19T03:27:10;24.50;;;13.57;;
4074;SDS011;2052;53.522;9.806;2023-10-19T03:29:41;23.23;;;12.83;;
4074;SDS011;2052;53.522;9.806;2023-10-19T03:32:11;29.87;;;15.20;;
4074;SDS011;2052;53.522;9.806;2023-10-19T03:34:38;30.17;;;13.43;;
4074;SDS011;2052;53.522;9.806;2023-10-19T03:37:09;25.57;;;14.50;;
4074;SDS011;2052;53.522;9.806;2023-10-19T03:39:39;26.47;;;14.07;;
4074;SDS011;2052;53.522;9.806;2023-10-19T03:42:06;22.23;;;14.03;;
4074;SDS011;2052;53.522;9.806;2023-10-19T03:44:34;30.23;;;16.27;;
4074;SDS011;2052;53.522;9.806;2023-10-19T03:47:10;29.83;;;14.77;;
4074;SDS011;2052;53.522;9.806;2023-10-19T03:49:39;29.73;;;15.63;;
4074;SDS011;2052;53.522;9.806;2023-10-19T03:52:07;28.97;;;15.23;;
4074;SDS011;2052;53.522;9.806;2023-10-19T03:54:47;27.50;;;14.53;;
4074;SDS011;2052;53.522;9.806;2023-10-19T03:57:15;24.67;;;14.67;;
4074;SDS011;2052;53.522;9.806;2023-10-19T03:59:44;26.07;;;15.70;;
4074;SDS011;2052;53.522;9.806;2023-10-19T04:02:12;31.63;;;14.50;;
4074;SDS011;2052;53.522;9.806;2023-10-19T04:04:38;32.07;;;16.30;;
4074;SDS011;2052;53.522;9.806;2023-10-19T04:07:08;31.07;;;15.97;;
4074;SDS011;2052;53.522;9.806;2023-10-19T04:09:43;34.53;;;15.47;;
4074;SDS011;2052;53.522;9.806;2023-10-19T04:12:26;29.73;;;14.90;;
4074;SDS011;2052;53.522;9.806;2023-10-19T04:14:54;33.83;;;15.27;;
4074;SDS011;2052;53.522;9.806;2023-10-19T04:17:21;30.47;;;16.23;;
4074;SDS011;2052;53.522;9.806;2023-10-19T04:19:50;29.37;;;15.27;;
4074;SDS011;2052;53.522;9.806;2023-10-19T04:22:18;27.70;;;15.67;;
4074;SDS011;2052;53.522;9.806;2023-10-19T04:24:48;34.23;;;17.63;;
4074;SDS011;2052;53.522;9.806;2023-10-19T04:27:14;30.47;;;17.30;;
4074;SDS011;2052;53.522;9.806;2023-10-19T04:29:42;27.87;;;16.90;;
4074;SDS011;2052;53.522;9.806;2023-10-19T04:32:10;24.83;;;14.83;;
4074;SDS011;2052;53.522;9.806;2023-10-19T04:34:39;31.23;;;16.47;;
4074;SDS011;2052;53.522;9.806;2023-10-19T04:37:06;35.03;;;17.20;;
4074;SDS011;2052;53.522;9.806;2023-10-19T04:39:33;29.57;;;16.93;;
4074;SDS011;2052;53.522;9.806;2023-10-19T04:42:01;39.97;;;17.97;;
4074;SDS011;2052;53.522;9.806;2023-10-19T04:44:27;29.30;;;16.10;;
4074;SDS011;2052;53.522;9.806;2023-10-19T04:46:59;41.97;;;17.93;;
4074;SDS011;2052;53.522;9.806;2023-10-19T04:49:26;29.73;;;16.77;;
4074;SDS011;2052;53.522;9.806;2023-10-19T04:51:53;32.63;;;16.47;;
4074;SDS011;2052;53.522;9.806;2023-10-19T04:54:19;35.70;;;17.37;;
4074;SDS011;2052;53.522;9.806;2023-10-19T04:56:46;34.33;;;18.57;;
4074;SDS011;2052;53.522;9.806;2023-10-19T04:59:15;34.10;;;17.77;;
4074;SDS011;2052;53.522;9.806;2023-10-19T05:01:42;35.87;;;18.90;;
4074;SDS011;2052;53.522;9.806;2023-10-19T05:04:10;42.00;;;18.80;;
4074;SDS011;2052;53.522;9.806;2023-10-19T05:06:38;30.70;;;17.77;;
4074;SDS011;2052;53.522;9.806;2023-10-19T05:09:05;33.57;;;17.30;;
4074;SDS011;2052;53.522;9.806;2023-10-19T05:11:32;37.10;;;18.83;;
4074;SDS011;2052;53.522;9.806;2023-10-19T05:14:00;35.30;;;17.23;;
4074;SDS011;2052;53.522;9.806;2023-10-19T05:16:26;38.67;;;18.60;;
4074;SDS011;2052;53.522;9.806;2023-10-19T05:18:53;31.40;;;17.10;;
4074;SDS011;2052;53.522;9.806;2023-10-19T05:21:23;38.57;;;18.63;;
4074;SDS011;2052;53.522;9.806;2023-10-19T05:23:50;34.80;;;17.37;;
4074;SDS011;2052;53.522;9.806;2023-10-19T05:26:17;33.90;;;18.03;;
4074;SDS011;2052;53.522;9.806;2023-10-19T05:28:44;39.30;;;17.93;;
4074;SDS011;2052;53.522;9.806;2023-10-19T05:31:12;41.37;;;17.90;;
4074;SDS011;2052;53.522;9.806;2023-10-19T05:33:40;32.73;;;18.07;;
4074;SDS011;2052;53.522;9.806;2023-10-19T05:36:09;33.33;;;17.80;;
4074;SDS011;2052;53.522;9.806;2023-10-19T05:38:38;38.20;;;19.90;;
4074;SDS011;2052;53.522;9.806;2023-10-19T05:41:04;32.10;;;18.03;;
4074;SDS011;2052;53.522;9.806;2023-10-19T05:43:33;35.40;;;18.43;;
4074;SDS011;2052;53.522;9.806;2023-10-19T05:45:59;31.70;;;17.70;;
4074;SDS011;2052;53.522;9.806;2023-10-19T05:48:26;37.93;;;19.10;;
4074;SDS011;2052;53.522;9.806;2023-10-19T05:50:52;35.97;;;17.83;;
4074;SDS011;2052;53.522;9.806;2023-10-19T05:53:20;36.47;;;17.77;;
4074;SDS011;2052;53.522;9.806;2023-10-19T05:55:48;34.70;;;18.30;;
4074;SDS011;2052;53.522;9.806;2023-10-19T05:58:15;35.47;;;20.13;;
4074;SDS011;2052;53.522;9.806;2023-10-19T06:00:42;39.87;;;20.00;;
4074;SDS011;2052;53.522;9.806;2023-10-19T06:03:08;36.43;;;20.13;;
4074;SDS011;2052;53.522;9.806;2023-10-19T06:05:36;40.50;;;17.63;;
4074;SDS011;2052;53.522;9.806;2023-10-19T06:08:03;37.23;;;18.20;;
4074;SDS011;2052;53.522;9.806;2023-10-19T06:10:30;37.20;;;18.50;;
4074;SDS011;2052;53.522;9.806;2023-10-19T06:12:59;34.83;;;19.30;;
4074;SDS011;2052;53.522;9.806;2023-10-19T06:15:26;34.83;;;18.57;;
4074;SDS011;2052;53.522;9.806;2023-10-19T06:17:56;36.13;;;18.63;;
4074;SDS011;2052;53.522;9.806;2023-10-19T06:20:22;35.10;;;18.20;;
4074;SDS011;2052;53.522;9.806;2023-10-19T06:22:52;35.33;;;18.80;;
4074;SDS011;2052;53.522;9.806;2023-10-19T06:25:21;28.20;;;17.40;;
4074;SDS011;2052;53.522;9.806;2023-10-19T06:27:48;35.93;;;18.77;;
4074;SDS011;2052;53.522;9.806;2023-10-19T06:30:17;44.23;;;19.40;;
4074;SDS011;2052;53.522;9.806;2023-10-19T06:32:46;29.23;;;17.10;;
4074;SDS011;2052;53.522;9.806;2023-10-19T06:35:14;38.97;;;19.20;;
4074;SDS011;2052;53.522;9.806;2023-10-19T06:37:41;37.97;;;18.50;;
4074;SDS011;2052;53.522;9.806;2023-10-19T06:40:08;39.10;;;19.13;;
4074;SDS011;2052;53.522;9.806;2023-10-19T06:42:36;34.30;;;18.60;;
4074;SDS011;2052;53.522;9.806;2023-10-19T06:45:03;37.03;;;18.37;;
4074;SDS011;2052;53.522;9.806;2023-10-19T06:47:33;35.37;;;17.53;;
4074;SDS011;2052;53.522;9.806;2023-10-19T06:50:04;31.87;;;16.57;;
4074;SDS011;2052;53.522;9.806;2023-10-19T06:52:32;32.47;;;18.37;;
4074;SDS011;2052;53.522;9.806;2023-10-19T06:55:01;37.70;;;16.93;;
4074;SDS011;2052;53.522;9.806;2023-10-19T06:57:29;34.73;;;18.10;;
4074;SDS011;2052;53.522;9.806;2023-10-19T06:59:56;35.37;;;17.63;;
4074;SDS011;2052;53.522;9.806;2023-10-19T07:02:23;39.70;;;18.03;;
4074;SDS011;2052;53.522;9.806;2023-10-19T07:04:51;32.50;;;17.63;;
4074;SDS011;2052;53.522;9.806;2023-10-19T07:07:20;35.10;;;17.87;;
4074;SDS011;2052;53.522;9.806;2023-10-19T07:09:47;31.30;;;16.80;;
4074;SDS011;2052;53.522;9.806;2023-10-19T07:12:13;38.73;;;17.63;;
4074;SDS011;2052;53.522;9.806;2023-10-19T07:14:43;38.03;;;17.57;;
4074;SDS011;2052;53.522;9.806;2023-10-19T07:17:09;32.03;;;17.07;;
4074;SDS011;2052;53.522;9.806;2023-10-19T07:19:41;34.97;;;19.13;;
4074;SDS011;2052;53.522;9.806;2023-10-19T07:22:13;37.97;;;17.93;;
4074;SDS011;2052;53.522;9.806;2023-10-19T07:24:40;32.50;;;17.40;;
4074;SDS011;2052;53.522;9.806;2023-10-19T07:27:06;34.43;;;18.30;;
4074;SDS011;2052;53.522;9.806;2023-10-19T07:29:43;36.97;;;18.07;;
4074;SDS011;2052;53.522;9.806;2023-10-19T07:32:10;33.93;;;17.40;;
4074;SDS011;2052;53.522;9.806;2023-10-19T07:34:38;30.53;;;16.27;;
4074;SDS011;2052;53.522;9.806;2023-10-19T07:37:05;36.63;;;18.30;;
4074;SDS011;2052;53.522;9.806;2023-10-19T07:39:33;33.40;;;17.30;;
4074;SDS011;2052;53.522;9.806;2023-10-19T07:42:04;28.87;;;17.63;;
4074;SDS011;2052;53.522;9.806;2023-10-19T07:44:32;34.13;;;18.60;;
4074;SDS011;2052;53.522;9.806;2023-10-19T07:46:58;33.80;;;17.33;;
4074;SDS011;2052;53.522;9.806;2023-10-19T07:49:25;37.50;;;19.20;;
4074;SDS011;2052;53.522;9.806;2023-10-19T07:51:51;35.83;;;17.00;;
4074;SDS011;2052;53.522;9.806;2023-10-19T07:54:18;36.93;;;18.57;;
4074;SDS011;2052;53.522;9.806;2023-10-19T07:56:47;41.90;;;18.47;;
4074;SDS011;2052;53.522;9.806;2023-10-19T07:59:14;37.10;;;18.33;;
4074;SDS011;2052;53.522;9.806;2023-10-19T08:01:43;34.33;;;18.33;;
4074;SDS011;2052;53.522;9.806;2023-10-19T08:04:10;34.03;;;16.70;;
4074;SDS011;2052;53.522;9.806;2023-10-19T08:06:37;29.87;;;16.13;;
4074;SDS011;2052;53.522;9.806;2023-10-19T08:09:03;33.83;;;16.57;;
4074;SDS011;2052;53.522;9.806;2023-10-19T08:11:31;32.23;;;16.43;;
4074;SDS011;2052;53.522;9.806;2023-10-19T08:14:02;35.80;;;15.90;;
4074;SDS011;2052;53.522;9.806;2023-10-19T08:16:30;40.57;;;18.97;;
4074;SDS011;2052;53.522;9.806;2023-10-19T08:18:57;36.60;;;17.10;;
4074;SDS011;2052;53.522;9.806;2023-10-19T08:21:24;36.23;;;18.20;;
4074;SDS011;2052;53.522;9.806;2023-10-19T08:23:53;34.93;;;16.40;;
4074;SDS011;2052;53.522;9.806;2023-10-19T08:26:20;37.07;;;18.50;;
4074;SDS011;2052;53.522;9.806;2023-10-19T08:28:50;34.17;;;18.93;;
4074;SDS011;2052;53.522;9.806;2023-10-19T08:31:18;46.27;;;18.53;;
4074;SDS011;2052;53.522;9.806;2023-10-19T08:33:44;37.23;;;18.30;;
4074;SDS011;2052;53.522;9.806;2023-10-19T08:36:17;40.30;;;18.83;;
4074;SDS011;2052;53.522;9.806;2023-10-19T08:38:45;35.40;;;18.30;;
4074;SDS011;2052;53.522;9.806;2023-10-19T08:41:12;31.73;;;16.90;;
4074;SDS011;2052;53.522;9.806;2023-10-19T08:43:39;45.60;;;19.40;;
4074;SDS011;2052;53.522;9.806;2023-10-19T08:46:06;35.00;;;18.63;;
4074;SDS011;2052;53.522;9.806;2023-10-19T08:48:35;34.50;;;19.00;;
4074;SDS011;2052;53.522;9.806;2023-10-19T08:51:03;35.50;;;19.20;;
4074;SDS011;2052;53.522;9.806;2023-10-19T08:53:36;35.17;;;17.97;;
4074;SDS011;2052;53.522;9.806;2023-10-19T08:56:05;37.50;;;19.00;;
4074;SDS011;2052;53.522;9.806;2023-10-19T08:58:33;34.13;;;17.67;;
4074;SDS011;2052;53.522;9.806;2023-10-19T09:01:00;39.80;;;19.87;;
4074;SDS011;2052;53.522;9.806;2023-10-19T09:03:31;34.33;;;17.93;;
4074;SDS011;2052;53.522;9.806;2023-10-19T09:06:02;30.17;;;17.20;;
4074;SDS011;2052;53.522;9.806;2023-10-19T09:08:30;34.83;;;18.40;;
4074;SDS011;2052;53.522;9.806;2023-10-19T09:11:05;35.50;;;19.80;;
4074;SDS011;2052;53.522;9.806;2023-10-19T09:13:42;41.03;;;20.00;;
4074;SDS011;2052;53.522;9.806;2023-10-19T09:16:09;35.30;;;19.03;;
4074;SDS011;2052;53.522;9.806;2023-10-19T09:18:36;38.03;;;19.23;;
4074;SDS011;2052;53.522;9.806;2023-10-19T09:21:06;36.90;;;19.47;;
4074;SDS011;2052;53.522;9.806;2023-10-19T09:23:36;32.57;;;17.80;;
4074;SDS011;2052;53.522;9.806;2023-10-19T09:26:04;35.27;;;18.90;;
4074;SDS011;2052;53.522;9.806;2023-10-19T09:28:33;32.70;;;18.70;;
4074;SDS011;2052;53.522;9.806;2023-10-19T09:31:01;34.90;;;19.27;;
4074;SDS011;2052;53.522;9.806;2023-10-19T09:33:28;37.57;;;18.50;;
4074;SDS011;2052;53.522;9.806;2023-10-19T09:35:55;35.30;;;18.30;;
4074;SDS011;2052;53.522;9.806;2023-10-19T09:38:26;34.10;;;18.10;;
4074;SDS011;2052;53.522;9.806;2023-10-19T09:40:53;34.20;;;19.40;;
4074;SDS011;2052;53.522;9.806;2023-10-19T09:43:22;35.93;;;18.53;;
4074;SDS011;2052;53.522;9.806;2023-10-19T09:45:54;37.13;;;18.83;;
4074;SDS011;2052;53.522;9.806;2023-10-19T09:48:25;32.00;;;18.43;;
4074;SDS011;2052;53.522;9.806;2023-10-19T09:50:53;44.97;;;20.30;;
4074;SDS011;2052;53.522;9.806;2023-10-19T09:53:23;36.07;;;20.17;;
4074;SDS011;2052;53.522;9.806;2023-10-19T09:55:56;36.47;;;18.70;;
4074;SDS011;2052;53.522;9.806;2023-10-19T09:58:27;38.53;;;19.50;;
4074;SDS011;2052;53.522;9.806;2023-10-19T10:00:56;38.00;;;20.17;;
4074;SDS011;2052;53.522;9.806;2023-10-19T10:06:13;36.20;;;20.17;;
4074;SDS011;2052;53.522;9.806;2023-10-19T10:08:42;36.07;;;19.50;;
4074;SDS011;2052;53.522;9.806;2023-10-19T10:11:19;50.47;;;22.40;;
4074;SDS011;2052;53.522;9.806;2023-10-19T10:13:48;42.30;;;21.87;;
4074;SDS011;2052;53.522;9.806;2023-10-19T10:16:18;42.67;;;21.20;;
4074;SDS011;2052;53.522;9.806;2023-10-19T10:18:47;42.40;;;22.70;;
4074;SDS011;2052;53.522;9.806;2023-10-19T10:21:18;44.40;;;22.30;;
4074;SDS011;2052;53.522;9.806;2023-10-19T10:23:48;42.30;;;23.10;;
4074;SDS011;2052;53.522;9.806;2023-10-19T10:26:19;40.00;;;23.60;;
4074;SDS011;2052;53.522;9.806;2023-10-19T10:31:40;42.53;;;23.17;;
4074;SDS011;2052;53.522;9.806;2023-10-19T10:34:08;45.50;;;22.70;;
4074;SDS011;2052;53.522;9.806;2023-10-19T10:39:26;40.77;;;21.90;;
4074;SDS011;2052;53.522;9.806;2023-10-19T10:41:56;37.80;;;20.70;;
4074;SDS011;2052;53.522;9.806;2023-10-19T10:47:07;40.40;;;22.20;;
4074;SDS011;2052;53.522;9.806;2023-10-19T10:49:35;38.00;;;21.03;;
4074;SDS011;2052;53.522;9.806;2023-10-19T10:52:14;40.60;;;22.43;;
4074;SDS011;2052;53.522;9.806;2023-10-19T10:54:52;39.70;;;22.67;;
4074;SDS011;2052;53.522;9.806;2023-10-19T10:57:20;35.60;;;21.57;;
4074;SDS011;2052;53.522;9.806;2023-10-19T10:59:59;36.27;;;20.03;;
4074;SDS011;2052;53.522;9.806;2023-10-19T11:02:28;35.33;;;22.23;;
4074;SDS011;2052;53.522;9.806;2023-10-19T11:04:55;42.53;;;23.07;;
4074;SDS011;2052;53.522;9.806;2023-10-19T11:07:22;41.70;;;22.87;;
4074;SDS011;2052;53.522;9.806;2023-10-19T11:09:51;41.57;;;23.03;;
4074;SDS011;2052;53.522;9.806;2023-10-19T11:12:19;44.53;;;24.17;;
4074;SDS011;2052;53.522;9.806;2023-10-19T11:14:52;39.10;;;23.10;;
4074;SDS011;2052;53.522;9.806;2023-10-19T11:17:20;39.00;;;21.37;;
4074;SDS011;2052;53.522;9.806;2023-10-19T11:19:53;38.53;;;22.90;;
4074;SDS011;2052;53.522;9.806;2023-10-19T11:22:21;41.73;;;24.30;;
4074;SDS011;2052;53.522;9.806;2023-10-19T11:24:49;42.50;;;23.33;;
4074;SDS011;2052;53.522;9.806;2023-10-19T11:27:23;42.17;;;22.03;;
4074;SDS011;2052;53.522;9.806;2023-10-19T11:29:56;39.37;;;23.30;;
4074;SDS011;2052;53.522;9.806;2023-10-19T11:32:23;46.40;;;24.53;;
4074;SDS011;2052;53.522;9.806;2023-10-19T11:34:51;51.73;;;22.57;;
4074;SDS011;2052;53.522;9.806;2023-10-19T11:37:18;39.43;;;22.40;;
4074;SDS011;2052;53.522;9.806;2023-10-19T11:39:45;35.20;;;21.80;;
4074;SDS011;2052;53.522;9.806;2023-10-19T11:42:11;40.27;;;22.20;;
4074;SDS011;2052;53.522;9.806;2023-10-19T11:44:41;43.67;;;22.73;;
4074;SDS011;2052;53.522;9.806;2023-10-19T11:47:08;38.70;;;23.10;;
4074;SDS011;2052;53.522;9.806;2023-10-19T11:49:35;38.10;;;22.33;;
4074;SDS011;2052;53.522;9.806;2023-10-19T11:52:03;45.23;;;23.83;;
4074;SDS011;2052;53.522;9.806;2023-10-19T11:54:32;44.20;;;24.20;;
4074;SDS011;2052;53.522;9.806;2023-10-19T11:56:59;43.07;;;23.70;;
4074;SDS011;2052;53.522;9.806;2023-10-19T11:59:25;41.87;;;22.23;;
4074;SDS011;2052;53.522;9.806;2023-10-19T12:01:53;37.70;;;21.40;;
4074;SDS011;2052;53.522;9.806;2023-10-19T12:04:20;44.27;;;23.37;;
4074;SDS011;2052;53.522;9.806;2023-10-19T12:06:47;44.33;;;23.43;;
4074;SDS011;2052;53.522;9.806;2023-10-19T12:09:14;43.27;;;24.03;;
4074;SDS011;2052;53.522;9.806;2023-10-19T12:11:43;36.53;;;22.27;;
4074;SDS011;2052;53.522;9.806;2023-10-19T12:14:10;47.07;;;25.10;;
4074;SDS011;2052;53.522;9.806;2023-10-19T12:16:40;42.07;;;23.10;;
4074;SDS011;2052;53.522;9.806;2023-10-19T12:19:09;42.97;;;23.70;;
4074;SDS011;2052;53.522;9.806;2023-10-19T12:21:36;42.93;;;24.13;;
4074;SDS011;2052;53.522;9.806;2023-10-19T12:24:06;42.57;;;22.00;;
4074;SDS011;2052;53.522;9.806;2023-10-19T12:26:34;40.27;;;22.30;;
4074;SDS011;2052;53.522;9.806;2023-10-19T12:29:00;39.27;;;22.03;;
4074;SDS011;2052;53.522;9.806;2023-10-19T12:31:30;42.93;;;22.17;;
4074;SDS011;2052;53.522;9.806;2023-10-19T12:33:58;43.23;;;23.77;;
4074;SDS011;2052;53.522;9.806;2023-10-19T12:36:28;36.07;;;22.50;;
4074;SDS011;2052;53.522;9.806;2023-10-19T12:38:58;39.30;;;22.17;;
4074;SDS011;2052;53.522;9.806;2023-10-19T12:41:25;41.40;;;22.07;;
4074;SDS011;2052;53.522;9.806;2023-10-19T12:43:52;44.40;;;23.10;;
4074;SDS011;2052;53.522;9.806;2023-10-19T12:46:22;38.60;;;21.50;;
4074;SDS011;2052;53.522;9.806;2023-10-19T12:48:49;39.87;;;22.90;;
4074;SDS011;2052;53.522;9.806;2023-10-19T12:51:16;38.67;;;22.33;;
4074;SDS011;2052;53.522;9.806;2023-10-19T12:53:49;43.63;;;24.10;;
4074;SDS011;2052;53.522;9.806;2023-10-19T12:56:16;48.37;;;24.63;;
4074;SDS011;2052;53.522;9.806;2023-10-19T12:58:43;45.50;;;25.30;;
4074;SDS011;2052;53.522;9.806;2023-10-19T13:01:09;43.83;;;23.83;;
4074;SDS011;2052;53.522;9.806;2023-10-19T13:03:41;41.13;;;23.43;;
4074;SDS011;2052;53.522;9.806;2023-10-19T13:06:10;46.77;;;25.53;;
4074;SDS011;2052;53.522;9.806;2023-10-19T13:08:37;43.40;;;24.03;;
4074;SDS011;2052;53.522;9.806;2023-10-19T13:11:07;48.80;;;24.87;;
4074;SDS011;2052;53.522;9.806;2023-10-19T13:13:40;51.90;;;27.20;;
4074;SDS011;2052;53.522;9.806;2023-10-19T13:16:06;45.50;;;24.13;;
4074;SDS011;2052;53.522;9.806;2023-10-19T13:18:34;45.63;;;25.30;;
4074;SDS011;2052;53.522;9.806;2023-10-19T13:21:01;43.07;;;23.47;;
4074;SDS011;2052;53.522;9.806;2023-10-19T13:23:30;45.03;;;24.40;;
4074;SDS011;2052;53.522;9.806;2023-10-19T13:25:58;45.83;;;24.20;;
4074;SDS011;2052;53.522;9.806;2023-10-19T13:28:34;37.67;;;23.80;;
4074;SDS011;2052;53.522;9.806;2023-10-19T13:31:03;64.93;;;26.87;;
4074;SDS011;2052;53.522;9.806;2023-10-19T13:33:34;46.60;;;24.37;;
4074;SDS011;2052;53.522;9.806;2023-10-19T13:36:01;37.93;;;21.93;;
4074;SDS011;2052;53.522;9.806;2023-10-19T13:38:30;40.73;;;23.97;;
4074;SDS011;2052;53.522;9.806;2023-10-19T13:40:57;50.57;;;24.73;;
4074;SDS011;2052;53.522;9.806;2023-10-19T13:43:24;52.90;;;24.17;;
4074;SDS011;2052;53.522;9.806;2023-10-19T13:45:52;43.07;;;24.37;;
4074;SDS011;2052;53.522;9.806;2023-10-19T13:48:19;48.87;;;25.33;;
4074;SDS011;2052;53.522;9.806;2023-10-19T13:50:46;44.10;;;22.67;;
4074;SDS011;2052;53.522;9.806;2023-10-19T13:53:14;40.93;;;23.40;;
4074;SDS011;2052;53.522;9.806;2023-10-19T13:55:40;47.87;;;24.00;;
4074;SDS011;2052;53.522;9.806;2023-10-19T13:58:07;43.03;;;23.40;;
4074;SDS011;2052;53.522;9.806;2023-10-19T14:00:34;43.00;;;23.03;;
4074;SDS011;2052;53.522;9.806;2023-10-19T14:03:07;49.50;;;22.17;;
4074;SDS011;2052;53.522;9.806;2023-10-19T14:05:37;39.37;;;23.13;;
4074;SDS011;2052;53.522;9.806;2023-10-19T14:08:06;45.30;;;23.23;;
4074;SDS011;2052;53.522;9.806;2023-10-19T14:10:33;52.60;;;25.00;;
4074;SDS011;2052;53.522;9.806;2023-10-19T14:13:01;45.27;;;24.60;;
4074;SDS011;2052;53.522;9.806;2023-10-19T14:15:29;46.33;;;23.30;;
4074;SDS011;2052;53.522;9.806;2023-10-19T14:17:56;39.90;;;22.40;;
4074;SDS011;2052;53.522;9.806;2023-10-19T14:20:25;40.53;;;23.33;;
4074;SDS011;2052;53.522;9.806;2023-10-19T14:22:51;43.23;;;23.47;;
4074;SDS011;2052;53.522;9.806;2023-10-19T14:25:19;43.97;;;23.03;;
4074;SDS011;2052;53.522;9.806;2023-10-19T14:27:49;41.57;;;23.63;;
4074;SDS011;2052;53.522;9.806;2023-10-19T14:30:18;45.13;;;24.43;;
4074;SDS011;2052;53.522;9.806;2023-10-19T14:32:48;60.53;;;23.23;;
4074;SDS011;2052;53.522;9.806;2023-10-19T14:35:15;43.40;;;23.37;;
4074;SDS011;2052;53.522;9.806;2023-10-19T14:37:44;39.93;;;23.00;;
4074;SDS011;2052;53.522;9.806;2023-10-19T14:40:15;43.03;;;24.10;;
4074;SDS011;2052;53.522;9.806;2023-10-19T14:42:42;45.83;;;25.00;;
4074;SDS011;2052;53.522;9.806;2023-10-19T14:45:09;46.70;;;23.80;;
4074;SDS011;2052;53.522;9.806;2023-10-19T14:47:39;45.63;;;24.70;;
4074;SDS011;2052;53.522;9.806;2023-10-19T14:50:06;45.37;;;22.47;;
4074;SDS011;2052;53.522;9.806;2023-10-19T14:52:36;45.17;;;22.87;;
4074;SDS011;2052;53.522;9.806;2023-10-19T14:55:04;40.40;;;22.43;;
4074;SDS011;2052;53.522;9.806;2023-10-19T14:57:32;39.40;;;22.60;;
4074;SDS011;2052;53.522;9.806;2023-10-19T14:59:58;41.20;;;22.13;;
4074;SDS011;2052;53.522;9.806;2023-10-19T15:02:31;43.10;;;22.87;;
4074;SDS011;2052;53.522;9.806;2023-10-19T15:04:58;40.77;;;22.40;;
4074;SDS011;2052;53.522;9.806;2023-10-19T15:07:26;46.70;;;23.63;;
4074;SDS011;2052;53.522;9.806;2023-10-19T15:09:53;49.50;;;23.90;;